CheckWX is a tool to help pilots better visualize weather data.  It is not intended as a substitute for an official pre-flight weather briefing.

20:38:26 UTC

KDWH METAR
David Wayne Hooks Memorial Airport
Houston, Texas, USA
Current

45 mins ago

KDWH 181953Z 30010KT 10SM BKN030 BKN045 OVC055 22/16 A2973 RMK AO2 SLP066 T02220161
Observed
Apr-18 @ 19:53 UTC
Wind
  • 300° at 10 KTS
Visibility
10 SM
Flight Rules
MVFR
Cloud Levels
  • Broken at 3,000' AGL
  • Broken at 4,500' AGL
  • Overcast at 5,500' AGL
Temperature
22°C / 72°F
Dewpoint
16°C / 61°F
Humidity
69%
Altimeter
29.73" Hg
Pressure
1006.6 hPa
Previous

2 hours ago

KDWH 181853Z 27011KT 10SM BKN030 BKN049 22/17 A2973 RMK AO2 SLP064 T02220167
Observed
Apr-18 @ 18:53 UTC
Wind
  • 270° at 11 KTS
Visibility
10 SM
Flight Rules
MVFR
Cloud Levels
  • Broken at 3,000' AGL
  • Broken at 4,900' AGL
Temperature
22°C / 72°F
Dewpoint
17°C / 63°F
Humidity
73%
Altimeter
29.73" Hg
Pressure
1006.4 hPa
Previous

3 hours ago

KDWH 181800Z 31010KT 10SM BKN016 BKN025 BKN043 21/17 A2972 RMK AO2 T02110167
Observed
Apr-18 @ 18:00 UTC
Wind
  • 310° at 10 KTS
Visibility
10 SM
Flight Rules
MVFR
Cloud Levels
  • Broken at 1,600' AGL
  • Broken at 2,500' AGL
  • Broken at 4,300' AGL
Temperature
21°C / 70°F
Dewpoint
17°C / 63°F
Humidity
78%
Altimeter
29.72" Hg
Pressure
1006.42 hPa